< < Back
Terminal Aerodrome Forecast


Current Version              Previous Versions:   1  2  3  4  5  6  7  8  9  

Terminal Aerodrome Forecast

505
FTUS42 KFFC 291721
TAFAHN
TAF
KAHN 291721Z 2918/3018 04004KT P6SM SCT070 BKN120
     FM300000 07003KT P6SM SCT100 BKN150
     FM300500 VRB03KT P6SM SCT150
     FM301500 31004KT P6SM FEW040=



Latest METAR

756
SAUS70 KWBC 300500
MTRAHN
METAR KAHN 300451Z AUTO 00000KT 10SM CLR 19/17 A3004 RMK AO2 SLP168
T01890167 402720183


USA.gov is the U.S. government's official web portal to all federal, state and local government web resources and services.